createdAt,value
2023-03-02T00:01:02.970Z,86.38
2023-03-02T00:06:06.956Z,86.48
2023-03-02T00:11:10.606Z,86.41
2023-03-02T00:16:13.492Z,86.08
2023-03-02T00:21:19.454Z,86.00
2023-03-02T00:26:22.301Z,85.90
2023-03-02T00:31:25.214Z,85.70
2023-03-02T00:36:28.963Z,85.59
2023-03-02T00:41:31.835Z,85.94
2023-03-02T00:46:35.099Z,85.67
2023-03-02T00:51:38.675Z,84.99
2023-03-02T00:56:42.517Z,85.04
2023-03-02T01:01:45.485Z,84.97
2023-03-02T01:06:48.323Z,84.76
2023-03-02T01:11:51.363Z,84.65
2023-03-02T01:16:54.345Z,84.95
2023-03-02T01:21:57.270Z,85.28
2023-03-02T01:27:00.781Z,85.17
2023-03-02T01:32:04.443Z,84.85
2023-03-02T01:37:07.436Z,84.64
2023-03-02T01:42:10.315Z,83.60
2023-03-02T01:47:19.599Z,83.11
2023-03-02T01:52:24.109Z,82.58
2023-03-02T01:57:32.919Z,82.90
2023-03-02T02:02:36.955Z,82.14
2023-03-02T02:07:41.101Z,81.94
2023-03-02T02:12:43.949Z,81.95
2023-03-02T02:17:46.744Z,82.25
2023-03-02T02:23:01.524Z,82.60
2023-03-02T02:28:11.161Z,82.82
2023-03-02T02:33:19.755Z,82.52
2023-03-02T02:38:24.380Z,82.53
2023-03-02T02:43:31.421Z,82.95
2023-03-02T02:48:34.913Z,83.15
2023-03-02T02:54:00.000Z,83.29
2023-03-02T02:59:08.020Z,83.43
2023-03-02T03:04:18.085Z,83.69
2023-03-02T03:09:24.133Z,83.90
2023-03-02T03:14:30.801Z,84.20
2023-03-02T03:19:33.801Z,84.42
2023-03-02T03:24:36.661Z,84.71
2023-03-02T03:29:42.196Z,84.63
2023-03-02T03:34:45.662Z,84.74
2023-03-02T03:39:48.594Z,85.05
2023-03-02T03:44:51.482Z,85.37
2023-03-02T03:49:54.232Z,85.75
2023-03-02T03:55:01.712Z,86.04
2023-03-02T04:00:10.634Z,85.99
2023-03-02T04:05:14.425Z,85.92
2023-03-02T04:10:17.247Z,86.24
2023-03-02T04:15:20.248Z,86.31
2023-03-02T04:20:24.449Z,86.24
2023-03-02T04:25:29.287Z,86.27
2023-03-02T04:30:35.401Z,86.57
2023-03-02T04:35:38.718Z,86.87
2023-03-02T04:40:41.559Z,86.76
2023-03-02T04:45:44.391Z,87.14
2023-03-02T04:50:47.671Z,87.32
2023-03-02T04:55:51.220Z,87.55
2023-03-02T05:01:02.184Z,87.54
2023-03-02T05:06:05.839Z,87.56
2023-03-02T05:11:22.609Z,87.84
2023-03-02T05:16:29.318Z,87.80
2023-03-02T05:21:32.506Z,87.90
2023-03-02T05:26:35.630Z,88.07
2023-03-02T05:31:42.153Z,88.44
2023-03-02T05:36:46.525Z,88.20
2023-03-02T05:41:49.797Z,88.35
2023-03-02T05:46:52.624Z,88.25
2023-03-02T05:51:57.428Z,88.05
2023-03-02T05:57:01.791Z,88.35
2023-03-02T06:02:04.815Z,88.68
2023-03-02T06:07:07.728Z,88.57
2023-03-02T06:12:10.671Z,88.38
2023-03-02T06:17:13.581Z,88.61
2023-03-02T06:22:16.518Z,88.05
2023-03-02T06:27:19.327Z,88.40
2023-03-02T06:32:22.299Z,88.87
2023-03-02T06:37:25.869Z,89.46
2023-03-02T06:42:30.898Z,91.95
2023-03-02T06:47:33.997Z,89.87
2023-03-02T06:52:40.931Z,89.22
2023-03-02T06:57:46.712Z,87.87
2023-03-02T07:02:56.198Z,87.81
2023-03-02T07:08:04.461Z,89.24
2023-03-02T07:13:22.148Z,86.88
2023-03-02T07:18:25.652Z,85.68
2023-03-02T07:23:35.356Z,85.72
2023-03-02T07:28:43.546Z,84.09
2023-03-02T07:34:11.685Z,83.53
2023-03-02T07:39:14.503Z,82.75
2023-03-02T07:44:17.970Z,83.63
2023-03-02T07:49:25.278Z,82.06
2023-03-02T07:54:31.298Z,81.36
2023-03-02T07:59:37.083Z,79.83
2023-03-02T08:04:45.246Z,80.32
2023-03-02T08:09:53.049Z,79.73
2023-03-02T08:14:57.019Z,79.59
2023-03-02T08:20:15.885Z,80.09
2023-03-02T08:25:20.595Z,79.27
2023-03-02T08:30:26.024Z,78.21
2023-03-02T08:35:29.013Z,78.82
2023-03-02T08:40:32.633Z,78.73
2023-03-02T08:45:35.687Z,77.41
2023-03-02T08:50:38.642Z,77.45
2023-03-02T08:55:41.687Z,77.84
2023-03-02T09:00:47.492Z,75.93
2023-03-02T09:05:51.112Z,74.63
2023-03-02T09:10:53.994Z,73.64
2023-03-02T09:15:57.074Z,73.37
2023-03-02T09:21:00.208Z,73.25
2023-03-02T09:26:04.310Z,71.92
2023-03-02T09:31:08.836Z,72.52
2023-03-02T09:36:16.177Z,71.84
2023-03-02T09:41:19.420Z,73.23
2023-03-02T09:46:41.790Z,74.28
2023-03-02T09:51:48.729Z,74.53
2023-03-02T09:56:56.063Z,74.93
2023-03-02T10:02:37.363Z,74.27
2023-03-02T10:07:40.215Z,78.18
2023-03-02T10:13:05.872Z,76.66
2023-03-02T10:18:12.411Z,75.85
2023-03-02T10:23:27.604Z,76.09
2023-03-02T10:28:38.185Z,74.10
2023-03-02T10:33:43.157Z,73.10
2023-03-02T10:38:46.712Z,73.48
2023-03-02T10:43:54.221Z,73.51
2023-03-02T10:49:01.430Z,72.48
2023-03-02T10:54:14.079Z,72.64
2023-03-02T10:59:28.794Z,72.32
2023-03-02T11:04:32.164Z,71.41
2023-03-02T11:09:37.507Z,71.40
2023-03-02T11:14:47.202Z,71.03
2023-03-02T11:19:52.921Z,70.81
2023-03-02T11:24:58.509Z,69.00
2023-03-02T11:30:19.266Z,69.77
2023-03-02T11:35:45.579Z,69.34
2023-03-02T11:41:00.132Z,68.29
2023-03-02T11:46:13.992Z,68.45
2023-03-02T11:51:25.067Z,68.01
2023-03-02T11:56:33.987Z,67.04
2023-03-02T12:01:39.090Z,66.70
2023-03-02T12:06:44.218Z,68.13
2023-03-02T12:11:58.511Z,68.13
2023-03-02T12:17:22.289Z,68.92
2023-03-02T12:22:29.145Z,65.79
2023-03-02T12:27:39.710Z,66.65
2023-03-02T12:32:58.382Z,66.57
2023-03-02T12:38:19.948Z,66.51
2023-03-02T12:43:30.816Z,66.78
2023-03-02T12:48:45.598Z,66.89
2023-03-02T12:53:50.641Z,65.95
2023-03-02T12:58:54.956Z,66.64
2023-03-02T13:03:58.461Z,65.22
2023-03-02T13:09:01.386Z,66.01
2023-03-02T13:14:22.790Z,65.20
2023-03-02T13:19:27.435Z,66.65
2023-03-02T13:24:44.352Z,66.27
2023-03-02T13:29:48.505Z,65.89
2023-03-02T13:34:57.760Z,65.99
2023-03-02T13:40:05.001Z,66.46
2023-03-02T13:45:34.477Z,67.98
2023-03-02T13:50:37.601Z,67.28
2023-03-02T13:55:40.472Z,67.33
2023-03-02T14:00:43.974Z,66.53
2023-03-02T14:05:46.832Z,65.61
2023-03-02T14:10:52.498Z,66.20
2023-03-02T14:15:55.459Z,67.61
2023-03-02T14:20:58.895Z,67.81
2023-03-02T14:26:03.474Z,64.45
2023-03-02T14:31:06.658Z,65.34
2023-03-02T14:36:21.174Z,65.71
2023-03-02T14:41:25.222Z,65.40
2023-03-02T14:46:28.406Z,64.01
2023-03-02T14:51:36.158Z,64.75
2023-03-02T14:56:39.530Z,65.07
2023-03-02T15:01:44.860Z,65.28
2023-03-02T15:06:48.005Z,65.30
2023-03-02T15:11:51.274Z,65.75
2023-03-02T15:16:55.490Z,65.75
2023-03-02T15:22:00.593Z,66.07
2023-03-02T15:27:03.484Z,66.69
2023-03-02T15:32:06.341Z,67.34
2023-03-02T15:37:12.861Z,67.50
2023-03-02T15:42:15.905Z,67.86
2023-03-02T15:47:18.719Z,68.59
2023-03-02T15:52:21.990Z,68.98
2023-03-02T15:57:26.018Z,69.55
2023-03-02T16:02:28.805Z,69.94
2023-03-02T16:07:32.000Z,70.24
2023-03-02T16:12:34.764Z,70.65
2023-03-02T16:17:37.637Z,71.15
2023-03-02T16:22:40.520Z,71.75
2023-03-02T16:27:47.570Z,72.04
2023-03-02T16:32:50.342Z,72.69
2023-03-02T16:37:53.720Z,72.98
2023-03-02T16:42:56.728Z,73.30
2023-03-02T16:47:59.765Z,73.82
2023-03-02T16:53:03.057Z,74.48
2023-03-02T16:58:05.891Z,74.97
2023-03-02T17:03:09.102Z,75.25
2023-03-02T17:08:14.096Z,75.49
2023-03-02T17:13:17.403Z,75.88
2023-03-02T17:18:20.353Z,76.03
2023-03-02T17:23:24.053Z,76.29
2023-03-02T17:28:29.332Z,76.62
2023-03-02T17:33:34.054Z,77.49
2023-03-02T17:38:36.859Z,77.75
2023-03-02T17:43:41.785Z,78.05
2023-03-02T17:48:44.639Z,78.29
2023-03-02T17:53:50.702Z,78.53
2023-03-02T17:59:01.194Z,78.34
2023-03-02T18:04:05.039Z,78.97
2023-03-02T18:09:08.099Z,79.60
2023-03-02T18:14:16.983Z,79.71
2023-03-02T18:19:20.561Z,79.60
2023-03-02T18:24:23.687Z,79.72
2023-03-02T18:29:26.972Z,80.21
2023-03-02T18:34:29.787Z,80.24
2023-03-02T18:39:33.468Z,80.39
2023-03-02T18:44:36.678Z,80.58
2023-03-02T18:49:42.842Z,80.79
2023-03-02T18:54:47.150Z,81.10
2023-03-02T18:59:50.297Z,81.46
2023-03-02T19:04:53.636Z,81.46
2023-03-02T19:09:56.709Z,81.37
2023-03-02T19:14:59.669Z,81.57
2023-03-02T19:20:02.697Z,81.54
2023-03-02T19:25:06.620Z,81.89
2023-03-02T19:30:14.294Z,82.07
2023-03-02T19:35:20.255Z,82.70
2023-03-02T19:40:25.549Z,82.58
2023-03-02T19:45:32.524Z,82.82
2023-03-02T19:50:35.545Z,83.03
2023-03-02T19:55:39.822Z,83.04
2023-03-02T20:00:43.780Z,83.28
2023-03-02T20:05:46.627Z,83.27
2023-03-02T20:10:50.215Z,83.31
2023-03-02T20:15:53.990Z,83.20
2023-03-02T20:20:56.919Z,83.26
2023-03-02T20:25:59.919Z,83.12
2023-03-02T20:31:08.984Z,83.10
2023-03-02T20:36:14.104Z,83.21
2023-03-02T20:41:18.011Z,83.38
2023-03-02T20:46:30.166Z,83.46
2023-03-02T20:51:33.040Z,83.48
2023-03-02T20:56:35.819Z,83.54
2023-03-02T21:01:38.647Z,83.90
2023-03-02T21:06:41.862Z,84.29
2023-03-02T21:11:46.803Z,84.23
2023-03-02T21:16:49.768Z,84.47
2023-03-02T21:21:52.843Z,84.85
2023-03-02T21:26:55.675Z,85.47
2023-03-02T21:31:58.677Z,86.05
2023-03-02T21:37:01.473Z,86.09
2023-03-02T21:42:04.364Z,86.45
2023-03-02T21:47:07.373Z,86.52
2023-03-02T21:52:10.226Z,86.67
2023-03-02T21:57:13.046Z,86.81
2023-03-02T22:02:15.965Z,86.95
2023-03-02T22:07:19.118Z,87.32
2023-03-02T22:12:23.190Z,87.28
2023-03-02T22:17:26.044Z,87.56
2023-03-02T22:22:30.649Z,87.58
2023-03-02T22:27:35.004Z,87.62
2023-03-02T22:32:38.619Z,87.84
2023-03-02T22:37:41.386Z,87.77
2023-03-02T22:42:44.166Z,87.57
2023-03-02T22:47:51.399Z,87.71
2023-03-02T22:52:56.346Z,87.79
2023-03-02T22:58:00.267Z,88.15
2023-03-02T23:03:16.041Z,88.26
2023-03-02T23:08:30.812Z,88.41
2023-03-02T23:13:40.242Z,88.40
2023-03-02T23:18:43.864Z,88.62
2023-03-02T23:23:47.543Z,89.04
2023-03-02T23:28:51.410Z,89.14
2023-03-02T23:33:54.541Z,89.15
2023-03-02T23:38:58.703Z,89.06
2023-03-02T23:44:01.555Z,89.34
2023-03-02T23:49:04.887Z,89.35
2023-03-02T23:54:08.013Z,89.38
2023-03-02T23:59:10.766Z,89.44
